sensor_id;sensor_type;location;lat;lon;timestamp;P1;durP1;ratioP1;P2;durP2;ratioP2
41514;SDS011;27247;48.020;16.720;2022-12-16T00:02:21;85.25;;;36.20;;
41514;SDS011;27247;48.020;16.720;2022-12-16T00:06:32;83.80;;;36.33;;
41514;SDS011;27247;48.020;16.720;2022-12-16T00:10:43;78.38;;;33.13;;
41514;SDS011;27247;48.020;16.720;2022-12-16T00:15:02;71.63;;;32.20;;
41514;SDS011;27247;48.020;16.720;2022-12-16T00:19:13;73.55;;;33.92;;
41514;SDS011;27247;48.020;16.720;2022-12-16T00:23:23;69.25;;;31.63;;
41514;SDS011;27247;48.020;16.720;2022-12-16T00:27:34;71.07;;;31.20;;
41514;SDS011;27247;48.020;16.720;2022-12-16T00:31:45;65.72;;;29.38;;
41514;SDS011;27247;48.020;16.720;2022-12-16T00:35:56;55.67;;;27.77;;
41514;SDS011;27247;48.020;16.720;2022-12-16T00:40:07;53.72;;;25.60;;
41514;SDS011;27247;48.020;16.720;2022-12-16T00:44:18;48.92;;;24.48;;
41514;SDS011;27247;48.020;16.720;2022-12-16T00:48:28;45.35;;;21.55;;
41514;SDS011;27247;48.020;16.720;2022-12-16T00:52:39;42.42;;;21.52;;
41514;SDS011;27247;48.020;16.720;2022-12-16T00:56:50;39.45;;;20.08;;
41514;SDS011;27247;48.020;16.720;2022-12-16T01:01:00;35.60;;;18.75;;
41514;SDS011;27247;48.020;16.720;2022-12-16T01:05:12;37.00;;;19.27;;
41514;SDS011;27247;48.020;16.720;2022-12-16T01:09:24;38.35;;;18.55;;
41514;SDS011;27247;48.020;16.720;2022-12-16T01:13:35;32.90;;;16.38;;
41514;SDS011;27247;48.020;16.720;2022-12-16T01:17:45;36.47;;;17.83;;
41514;SDS011;27247;48.020;16.720;2022-12-16T01:21:56;29.40;;;15.60;;
41514;SDS011;27247;48.020;16.720;2022-12-16T01:26:06;30.15;;;16.60;;
41514;SDS011;27247;48.020;16.720;2022-12-16T01:30:16;32.25;;;15.38;;
41514;SDS011;27247;48.020;16.720;2022-12-16T01:34:27;30.13;;;15.18;;
41514;SDS011;27247;48.020;16.720;2022-12-16T01:38:37;31.17;;;15.80;;
41514;SDS011;27247;48.020;16.720;2022-12-16T01:42:51;32.00;;;14.80;;
41514;SDS011;27247;48.020;16.720;2022-12-16T01:47:02;26.02;;;14.88;;
41514;SDS011;27247;48.020;16.720;2022-12-16T01:51:17;27.75;;;15.07;;
41514;SDS011;27247;48.020;16.720;2022-12-16T01:59:47;24.55;;;13.80;;
41514;SDS011;27247;48.020;16.720;2022-12-16T02:04:02;28.95;;;15.23;;
41514;SDS011;27247;48.020;16.720;2022-12-16T02:08:16;26.00;;;14.07;;
41514;SDS011;27247;48.020;16.720;2022-12-16T02:12:30;30.27;;;15.63;;
41514;SDS011;27247;48.020;16.720;2022-12-16T02:17:13;31.60;;;15.75;;
41514;SDS011;27247;48.020;16.720;2022-12-16T02:21:39;32.20;;;16.02;;
41514;SDS011;27247;48.020;16.720;2022-12-16T02:39:04;22.70;;;12.57;;
41514;SDS011;27247;48.020;16.720;2022-12-16T02:48:02;23.05;;;12.52;;
41514;SDS011;27247;48.020;16.720;2022-12-16T02:52:13;23.52;;;11.75;;
41514;SDS011;27247;48.020;16.720;2022-12-16T02:56:38;21.27;;;11.93;;
41514;SDS011;27247;48.020;16.720;2022-12-16T03:01:24;18.15;;;11.80;;
41514;SDS011;27247;48.020;16.720;2022-12-16T03:05:47;20.15;;;11.70;;
41514;SDS011;27247;48.020;16.720;2022-12-16T03:09:59;17.48;;;11.25;;
41514;SDS011;27247;48.020;16.720;2022-12-16T03:14:14;24.00;;;13.45;;
41514;SDS011;27247;48.020;16.720;2022-12-16T03:18:27;22.95;;;11.57;;
41514;SDS011;27247;48.020;16.720;2022-12-16T03:22:39;19.45;;;10.77;;
41514;SDS011;27247;48.020;16.720;2022-12-16T03:31:14;19.23;;;11.13;;
41514;SDS011;27247;48.020;16.720;2022-12-16T03:35:35;18.55;;;11.15;;
41514;SDS011;27247;48.020;16.720;2022-12-16T03:39:49;19.65;;;11.23;;
41514;SDS011;27247;48.020;16.720;2022-12-16T03:44:03;19.20;;;11.70;;
41514;SDS011;27247;48.020;16.720;2022-12-16T03:48:14;16.95;;;10.60;;
41514;SDS011;27247;48.020;16.720;2022-12-16T03:52:26;20.35;;;11.70;;
41514;SDS011;27247;48.020;16.720;2022-12-16T03:56:36;23.77;;;14.52;;
41514;SDS011;27247;48.020;16.720;2022-12-16T04:00:47;23.50;;;12.55;;
41514;SDS011;27247;48.020;16.720;2022-12-16T04:04:57;23.23;;;12.65;;
41514;SDS011;27247;48.020;16.720;2022-12-16T04:09:07;19.87;;;11.40;;
41514;SDS011;27247;48.020;16.720;2022-12-16T04:13:18;16.65;;;10.43;;
41514;SDS011;27247;48.020;16.720;2022-12-16T04:22:20;16.33;;;9.93;;
41514;SDS011;27247;48.020;16.720;2022-12-16T04:26:52;18.95;;;11.00;;
41514;SDS011;27247;48.020;16.720;2022-12-16T04:31:21;17.63;;;9.00;;
41514;SDS011;27247;48.020;16.720;2022-12-16T04:35:31;15.75;;;9.48;;
41514;SDS011;27247;48.020;16.720;2022-12-16T04:40:00;15.45;;;9.20;;
41514;SDS011;27247;48.020;16.720;2022-12-16T04:44:29;15.38;;;8.82;;
41514;SDS011;27247;48.020;16.720;2022-12-16T04:48:58;15.18;;;9.20;;
41514;SDS011;27247;48.020;16.720;2022-12-16T04:53:27;15.23;;;8.35;;
41514;SDS011;27247;48.020;16.720;2022-12-16T05:06:54;14.52;;;8.40;;
41514;SDS011;27247;48.020;16.720;2022-12-16T05:15:52;16.38;;;9.50;;
41514;SDS011;27247;48.020;16.720;2022-12-16T05:24:50;17.92;;;10.02;;
41514;SDS011;27247;48.020;16.720;2022-12-16T05:29:18;19.73;;;10.65;;
41514;SDS011;27247;48.020;16.720;2022-12-16T05:38:16;25.23;;;12.07;;
41514;SDS011;27247;48.020;16.720;2022-12-16T05:47:18;20.10;;;12.13;;
41514;SDS011;27247;48.020;16.720;2022-12-16T05:51:47;21.15;;;11.93;;
41514;SDS011;27247;48.020;16.720;2022-12-16T05:56:16;26.73;;;12.52;;
41514;SDS011;27247;48.020;16.720;2022-12-16T06:00:45;22.73;;;11.57;;
41514;SDS011;27247;48.020;16.720;2022-12-16T06:05:14;25.20;;;13.73;;
41514;SDS011;27247;48.020;16.720;2022-12-16T06:09:43;26.45;;;13.52;;
41514;SDS011;27247;48.020;16.720;2022-12-16T06:18:41;27.47;;;13.07;;
41514;SDS011;27247;48.020;16.720;2022-12-16T06:27:39;31.25;;;15.13;;
41514;SDS011;27247;48.020;16.720;2022-12-16T06:32:08;23.88;;;13.00;;
41514;SDS011;27247;48.020;16.720;2022-12-16T06:41:05;27.80;;;14.60;;
41514;SDS011;27247;48.020;16.720;2022-12-16T06:50:03;34.30;;;17.48;;
41514;SDS011;27247;48.020;16.720;2022-12-16T06:54:33;29.98;;;15.85;;
41514;SDS011;27247;48.020;16.720;2022-12-16T06:59:02;25.60;;;13.63;;
41514;SDS011;27247;48.020;16.720;2022-12-16T07:07:59;29.15;;;15.73;;
41514;SDS011;27247;48.020;16.720;2022-12-16T07:12:28;29.05;;;14.93;;
41514;SDS011;27247;48.020;16.720;2022-12-16T07:16:57;36.38;;;19.20;;
41514;SDS011;27247;48.020;16.720;2022-12-16T07:21:26;41.70;;;21.73;;
41514;SDS011;27247;48.020;16.720;2022-12-16T07:25:55;39.42;;;18.88;;
41514;SDS011;27247;48.020;16.720;2022-12-16T07:30:23;38.88;;;20.35;;
41514;SDS011;27247;48.020;16.720;2022-12-16T07:34:52;44.03;;;22.05;;
41514;SDS011;27247;48.020;16.720;2022-12-16T07:39:21;43.80;;;21.55;;
41514;SDS011;27247;48.020;16.720;2022-12-16T07:48:19;38.17;;;17.65;;
41514;SDS011;27247;48.020;16.720;2022-12-16T07:52:57;36.13;;;17.33;;
41514;SDS011;27247;48.020;16.720;2022-12-16T07:57:27;40.65;;;20.98;;
41514;SDS011;27247;48.020;16.720;2022-12-16T08:01:56;82.80;;;32.92;;
41514;SDS011;27247;48.020;16.720;2022-12-16T08:06:25;51.58;;;22.65;;
41514;SDS011;27247;48.020;16.720;2022-12-16T08:10:54;48.75;;;22.80;;
41514;SDS011;27247;48.020;16.720;2022-12-16T08:15:23;65.40;;;26.63;;
41514;SDS011;27247;48.020;16.720;2022-12-16T08:19:51;53.97;;;24.13;;
41514;SDS011;27247;48.020;16.720;2022-12-16T08:24:20;45.80;;;18.75;;
41514;SDS011;27247;48.020;16.720;2022-12-16T08:28:49;41.28;;;19.52;;
41514;SDS011;27247;48.020;16.720;2022-12-16T08:33:18;42.33;;;19.83;;
41514;SDS011;27247;48.020;16.720;2022-12-16T08:37:47;35.15;;;18.33;;
41514;SDS011;27247;48.020;16.720;2022-12-16T08:42:16;50.13;;;22.20;;
41514;SDS011;27247;48.020;16.720;2022-12-16T08:46:44;47.33;;;22.80;;
41514;SDS011;27247;48.020;16.720;2022-12-16T08:51:13;47.78;;;23.15;;
41514;SDS011;27247;48.020;16.720;2022-12-16T08:55:42;83.13;;;43.75;;
41514;SDS011;27247;48.020;16.720;2022-12-16T09:00:11;45.63;;;22.00;;
41514;SDS011;27247;48.020;16.720;2022-12-16T09:04:40;54.13;;;24.77;;
41514;SDS011;27247;48.020;16.720;2022-12-16T09:09:14;46.20;;;20.90;;
41514;SDS011;27247;48.020;16.720;2022-12-16T09:13:45;41.88;;;20.65;;
41514;SDS011;27247;48.020;16.720;2022-12-16T09:18:13;42.42;;;19.33;;
41514;SDS011;27247;48.020;16.720;2022-12-16T09:22:42;36.72;;;19.45;;
41514;SDS011;27247;48.020;16.720;2022-12-16T09:27:11;37.03;;;18.10;;
41514;SDS011;27247;48.020;16.720;2022-12-16T09:36:12;38.85;;;19.23;;
41514;SDS011;27247;48.020;16.720;2022-12-16T09:40:41;48.15;;;20.58;;
41514;SDS011;27247;48.020;16.720;2022-12-16T09:49:49;49.38;;;22.90;;
41514;SDS011;27247;48.020;16.720;2022-12-16T09:54:20;47.05;;;22.77;;
41514;SDS011;27247;48.020;16.720;2022-12-16T09:58:56;41.90;;;22.13;;
41514;SDS011;27247;48.020;16.720;2022-12-16T10:03:30;43.03;;;22.95;;
41514;SDS011;27247;48.020;16.720;2022-12-16T10:08:21;40.33;;;21.95;;
41514;SDS011;27247;48.020;16.720;2022-12-16T10:17:37;32.67;;;17.15;;
41514;SDS011;27247;48.020;16.720;2022-12-16T10:27:16;33.28;;;16.48;;
41514;SDS011;27247;48.020;16.720;2022-12-16T10:31:57;28.70;;;15.07;;
41514;SDS011;27247;48.020;16.720;2022-12-16T10:36:26;29.27;;;15.75;;
41514;SDS011;27247;48.020;16.720;2022-12-16T10:40:55;29.30;;;15.57;;
41514;SDS011;27247;48.020;16.720;2022-12-16T10:45:27;31.95;;;16.55;;
41514;SDS011;27247;48.020;16.720;2022-12-16T10:49:58;34.08;;;17.90;;
41514;SDS011;27247;48.020;16.720;2022-12-16T10:54:29;47.97;;;21.70;;
41514;SDS011;27247;48.020;16.720;2022-12-16T10:59:06;42.05;;;21.60;;
41514;SDS011;27247;48.020;16.720;2022-12-16T11:03:37;40.97;;;21.55;;
41514;SDS011;27247;48.020;16.720;2022-12-16T11:08:20;42.47;;;20.10;;
41514;SDS011;27247;48.020;16.720;2022-12-16T11:12:50;47.53;;;21.80;;
41514;SDS011;27247;48.020;16.720;2022-12-16T11:17:20;50.83;;;23.38;;
41514;SDS011;27247;48.020;16.720;2022-12-16T11:21:51;44.95;;;22.75;;
41514;SDS011;27247;48.020;16.720;2022-12-16T11:26:34;50.75;;;23.98;;
41514;SDS011;27247;48.020;16.720;2022-12-16T11:31:17;51.03;;;25.10;;
41514;SDS011;27247;48.020;16.720;2022-12-16T11:35:51;51.60;;;25.17;;
41514;SDS011;27247;48.020;16.720;2022-12-16T11:40:21;49.10;;;24.42;;
41514;SDS011;27247;48.020;16.720;2022-12-16T11:44:54;54.90;;;24.75;;
41514;SDS011;27247;48.020;16.720;2022-12-16T11:49:31;45.85;;;22.85;;
41514;SDS011;27247;48.020;16.720;2022-12-16T11:58:59;47.42;;;23.27;;
41514;SDS011;27247;48.020;16.720;2022-12-16T12:03:30;45.88;;;23.02;;
41514;SDS011;27247;48.020;16.720;2022-12-16T12:13:37;53.10;;;22.83;;
41514;SDS011;27247;48.020;16.720;2022-12-16T12:23:55;33.05;;;17.70;;
41514;SDS011;27247;48.020;16.720;2022-12-16T12:38:05;34.90;;;18.02;;
41514;SDS011;27247;48.020;16.720;2022-12-16T12:42:43;37.20;;;20.45;;
41514;SDS011;27247;48.020;16.720;2022-12-16T12:47:14;38.55;;;18.70;;
41514;SDS011;27247;48.020;16.720;2022-12-16T12:56:46;32.20;;;18.17;;
41514;SDS011;27247;48.020;16.720;2022-12-16T13:01:18;32.72;;;17.88;;
41514;SDS011;27247;48.020;16.720;2022-12-16T13:05:53;35.83;;;18.77;;
41514;SDS011;27247;48.020;16.720;2022-12-16T13:19:42;43.35;;;22.00;;
41514;SDS011;27247;48.020;16.720;2022-12-16T13:29:15;41.22;;;19.05;;
41514;SDS011;27247;48.020;16.720;2022-12-16T13:33:49;38.92;;;18.77;;
41514;SDS011;27247;48.020;16.720;2022-12-16T13:38:20;39.45;;;20.42;;
41514;SDS011;27247;48.020;16.720;2022-12-16T13:42:50;42.20;;;21.17;;
41514;SDS011;27247;48.020;16.720;2022-12-16T13:47:31;42.22;;;21.25;;
41514;SDS011;27247;48.020;16.720;2022-12-16T13:52:01;46.30;;;21.25;;
41514;SDS011;27247;48.020;16.720;2022-12-16T13:56:41;43.95;;;21.25;;
41514;SDS011;27247;48.020;16.720;2022-12-16T14:01:15;41.03;;;19.95;;
41514;SDS011;27247;48.020;16.720;2022-12-16T14:05:56;40.65;;;20.25;;
41514;SDS011;27247;48.020;16.720;2022-12-16T14:15:10;42.30;;;21.30;;
41514;SDS011;27247;48.020;16.720;2022-12-16T14:24:41;44.60;;;23.08;;
41514;SDS011;27247;48.020;16.720;2022-12-16T14:33:51;50.30;;;23.05;;
41514;SDS011;27247;48.020;16.720;2022-12-16T14:42:55;45.65;;;23.15;;
41514;SDS011;27247;48.020;16.720;2022-12-16T14:52:26;56.25;;;25.80;;
41514;SDS011;27247;48.020;16.720;2022-12-16T14:56:57;51.35;;;24.77;;
41514;SDS011;27247;48.020;16.720;2022-12-16T15:01:26;55.72;;;26.75;;
41514;SDS011;27247;48.020;16.720;2022-12-16T15:05:55;64.97;;;29.60;;
41514;SDS011;27247;48.020;16.720;2022-12-16T15:10:26;52.63;;;24.83;;
41514;SDS011;27247;48.020;16.720;2022-12-16T15:14:56;56.15;;;25.83;;
41514;SDS011;27247;48.020;16.720;2022-12-16T15:19:26;55.28;;;25.00;;
41514;SDS011;27247;48.020;16.720;2022-12-16T15:23:55;57.03;;;26.40;;
41514;SDS011;27247;48.020;16.720;2022-12-16T15:28:26;63.28;;;29.27;;
41514;SDS011;27247;48.020;16.720;2022-12-16T15:33:09;56.70;;;26.13;;
41514;SDS011;27247;48.020;16.720;2022-12-16T15:37:44;57.65;;;26.67;;
41514;SDS011;27247;48.020;16.720;2022-12-16T15:42:20;69.38;;;32.85;;
41514;SDS011;27247;48.020;16.720;2022-12-16T15:46:53;63.85;;;28.65;;
41514;SDS011;27247;48.020;16.720;2022-12-16T15:51:56;70.00;;;31.75;;
41514;SDS011;27247;48.020;16.720;2022-12-16T15:56:20;62.58;;;32.20;;
41514;SDS011;27247;48.020;16.720;2022-12-16T16:00:55;78.05;;;34.33;;
41514;SDS011;27247;48.020;16.720;2022-12-16T16:05:25;79.35;;;32.03;;
41514;SDS011;27247;48.020;16.720;2022-12-16T16:10:01;67.40;;;30.50;;
41514;SDS011;27247;48.020;16.720;2022-12-16T16:14:35;72.07;;;31.42;;
41514;SDS011;27247;48.020;16.720;2022-12-16T16:19:08;72.10;;;32.05;;
41514;SDS011;27247;48.020;16.720;2022-12-16T16:23:43;72.22;;;31.63;;
41514;SDS011;27247;48.020;16.720;2022-12-16T16:28:12;71.70;;;33.85;;
41514;SDS011;27247;48.020;16.720;2022-12-16T16:32:42;81.65;;;33.95;;
41514;SDS011;27247;48.020;16.720;2022-12-16T16:37:12;80.65;;;33.13;;
41514;SDS011;27247;48.020;16.720;2022-12-16T16:41:44;81.70;;;34.75;;
41514;SDS011;27247;48.020;16.720;2022-12-16T16:50:47;79.90;;;33.33;;
41514;SDS011;27247;48.020;16.720;2022-12-16T16:55:17;77.63;;;32.13;;
41514;SDS011;27247;48.020;16.720;2022-12-16T16:59:48;87.38;;;34.33;;
41514;SDS011;27247;48.020;16.720;2022-12-16T17:04:17;87.30;;;36.40;;
41514;SDS011;27247;48.020;16.720;2022-12-16T17:13:15;91.43;;;35.72;;
41514;SDS011;27247;48.020;16.720;2022-12-16T17:17:44;82.88;;;32.03;;
41514;SDS011;27247;48.020;16.720;2022-12-16T17:26:42;87.68;;;35.17;;
41514;SDS011;27247;48.020;16.720;2022-12-16T17:31:12;101.70;;;39.72;;
41514;SDS011;27247;48.020;16.720;2022-12-16T17:40:14;89.18;;;39.28;;
41514;SDS011;27247;48.020;16.720;2022-12-16T17:44:43;98.88;;;38.20;;
41514;SDS011;27247;48.020;16.720;2022-12-16T17:49:12;90.80;;;38.60;;
41514;SDS011;27247;48.020;16.720;2022-12-16T17:53:41;99.15;;;42.20;;
41514;SDS011;27247;48.020;16.720;2022-12-16T18:02:41;116.50;;;46.70;;
41514;SDS011;27247;48.020;16.720;2022-12-16T18:07:10;94.60;;;41.35;;
41514;SDS011;27247;48.020;16.720;2022-12-16T18:16:14;136.85;;;52.63;;
41514;SDS011;27247;48.020;16.720;2022-12-16T18:25:12;94.23;;;38.07;;
41514;SDS011;27247;48.020;16.720;2022-12-16T18:34:10;103.28;;;40.28;;
41514;SDS011;27247;48.020;16.720;2022-12-16T18:38:39;107.97;;;41.72;;
41514;SDS011;27247;48.020;16.720;2022-12-16T18:47:37;99.35;;;38.92;;
41514;SDS011;27247;48.020;16.720;2022-12-16T18:52:06;110.93;;;40.90;;
41514;SDS011;27247;48.020;16.720;2022-12-16T19:01:08;113.32;;;43.72;;
41514;SDS011;27247;48.020;16.720;2022-12-16T19:05:38;105.22;;;41.95;;
41514;SDS011;27247;48.020;16.720;2022-12-16T19:10:07;111.35;;;42.58;;
41514;SDS011;27247;48.020;16.720;2022-12-16T19:14:38;100.50;;;41.22;;
41514;SDS011;27247;48.020;16.720;2022-12-16T19:19:07;102.15;;;40.83;;
41514;SDS011;27247;48.020;16.720;2022-12-16T19:23:36;110.43;;;41.67;;
41514;SDS011;27247;48.020;16.720;2022-12-16T19:28:10;103.72;;;40.72;;
41514;SDS011;27247;48.020;16.720;2022-12-16T19:32:41;105.80;;;42.17;;
41514;SDS011;27247;48.020;16.720;2022-12-16T19:37:09;101.40;;;42.58;;
41514;SDS011;27247;48.020;16.720;2022-12-16T19:46:07;112.43;;;47.27;;
41514;SDS011;27247;48.020;16.720;2022-12-16T19:55:05;108.32;;;43.78;;
41514;SDS011;27247;48.020;16.720;2022-12-16T19:59:34;113.25;;;45.45;;
41514;SDS011;27247;48.020;16.720;2022-12-16T20:04:04;114.28;;;42.60;;
41514;SDS011;27247;48.020;16.720;2022-12-16T20:08:35;113.45;;;45.20;;
41514;SDS011;27247;48.020;16.720;2022-12-16T20:13:07;111.90;;;43.95;;
41514;SDS011;27247;48.020;16.720;2022-12-16T20:17:38;110.88;;;44.00;;
41514;SDS011;27247;48.020;16.720;2022-12-16T20:22:07;117.22;;;48.85;;
41514;SDS011;27247;48.020;16.720;2022-12-16T20:31:04;100.07;;;42.15;;
41514;SDS011;27247;48.020;16.720;2022-12-16T20:35:33;107.78;;;40.83;;
41514;SDS011;27247;48.020;16.720;2022-12-16T20:40:02;107.07;;;42.45;;
41514;SDS011;27247;48.020;16.720;2022-12-16T20:44:32;99.03;;;40.33;;
41514;SDS011;27247;48.020;16.720;2022-12-16T20:49:02;100.38;;;40.78;;
41514;SDS011;27247;48.020;16.720;2022-12-16T20:58:00;102.03;;;41.73;;
41514;SDS011;27247;48.020;16.720;2022-12-16T21:02:29;101.07;;;41.85;;
41514;SDS011;27247;48.020;16.720;2022-12-16T21:11:27;90.38;;;38.53;;
41514;SDS011;27247;48.020;16.720;2022-12-16T21:15:57;106.10;;;41.53;;
41514;SDS011;27247;48.020;16.720;2022-12-16T21:20:27;105.70;;;41.67;;
41514;SDS011;27247;48.020;16.720;2022-12-16T21:24:55;95.45;;;39.20;;
41514;SDS011;27247;48.020;16.720;2022-12-16T21:29:24;104.20;;;43.97;;
41514;SDS011;27247;48.020;16.720;2022-12-16T21:33:53;101.80;;;39.50;;
41514;SDS011;27247;48.020;16.720;2022-12-16T21:38:22;94.78;;;40.70;;
41514;SDS011;27247;48.020;16.720;2022-12-16T21:42:51;96.75;;;38.70;;
41514;SDS011;27247;48.020;16.720;2022-12-16T21:51:49;89.30;;;37.83;;
41514;SDS011;27247;48.020;16.720;2022-12-16T22:00:56;102.07;;;38.67;;
41514;SDS011;27247;48.020;16.720;2022-12-16T22:05:26;99.07;;;39.67;;
41514;SDS011;27247;48.020;16.720;2022-12-16T22:09:54;103.90;;;41.42;;
41514;SDS011;27247;48.020;16.720;2022-12-16T22:14:23;108.47;;;41.15;;
41514;SDS011;27247;48.020;16.720;2022-12-16T22:18:53;92.40;;;40.85;;
41514;SDS011;27247;48.020;16.720;2022-12-16T22:23:26;101.00;;;39.72;;
41514;SDS011;27247;48.020;16.720;2022-12-16T22:27:56;97.95;;;38.97;;
41514;SDS011;27247;48.020;16.720;2022-12-16T22:32:25;93.00;;;39.42;;
41514;SDS011;27247;48.020;16.720;2022-12-16T22:36:54;108.20;;;41.08;;
41514;SDS011;27247;48.020;16.720;2022-12-16T22:41:23;98.07;;;40.05;;
41514;SDS011;27247;48.020;16.720;2022-12-16T22:50:27;105.95;;;39.88;;
41514;SDS011;27247;48.020;16.720;2022-12-16T22:54:59;100.53;;;40.55;;
41514;SDS011;27247;48.020;16.720;2022-12-16T22:59:28;86.72;;;38.40;;
41514;SDS011;27247;48.020;16.720;2022-12-16T23:03:56;97.47;;;40.05;;
41514;SDS011;27247;48.020;16.720;2022-12-16T23:08:26;98.00;;;39.58;;
41514;SDS011;27247;48.020;16.720;2022-12-16T23:17:23;97.93;;;39.57;;
41514;SDS011;27247;48.020;16.720;2022-12-16T23:21:52;105.70;;;41.30;;
41514;SDS011;27247;48.020;16.720;2022-12-16T23:30:56;93.45;;;38.10;;
41514;SDS011;27247;48.020;16.720;2022-12-16T23:35:25;103.22;;;39.72;;
41514;SDS011;27247;48.020;16.720;2022-12-16T23:39:54;91.80;;;38.40;;
41514;SDS011;27247;48.020;16.720;2022-12-16T23:48:52;90.65;;;39.30;;
41514;SDS011;27247;48.020;16.720;2022-12-16T23:58:00;103.93;;;42.33;;
